createdAt,value
2023-02-06T00:00:04.983Z,1018.38
2023-02-06T00:01:05.026Z,1018.40
2023-02-06T00:02:05.317Z,1018.39
2023-02-06T00:03:04.969Z,1018.40
2023-02-06T00:04:04.967Z,1018.40
2023-02-06T00:05:04.943Z,1018.40
2023-02-06T00:06:04.993Z,1018.39
2023-02-06T00:07:04.964Z,1018.40
2023-02-06T00:08:05.001Z,1018.41
2023-02-06T00:09:04.936Z,1018.41
2023-02-06T00:10:04.922Z,1018.40
2023-02-06T00:11:04.959Z,1018.38
2023-02-06T00:12:04.913Z,1018.39
2023-02-06T00:13:04.902Z,1018.38
2023-02-06T00:14:04.973Z,1018.37
2023-02-06T00:15:04.909Z,1018.38
2023-02-06T00:16:04.911Z,1018.38
2023-02-06T00:17:04.915Z,1018.38
2023-02-06T00:18:04.882Z,1018.37
2023-02-06T00:19:04.876Z,1018.37
2023-02-06T00:20:04.930Z,1018.35
2023-02-06T00:21:04.867Z,1018.36
2023-02-06T00:22:04.849Z,1018.33
2023-02-06T00:23:04.846Z,1018.30
2023-02-06T00:24:04.827Z,1018.29
2023-02-06T00:25:04.832Z,1018.26
2023-02-06T00:26:04.869Z,1018.27
2023-02-06T00:27:04.797Z,1018.27
2023-02-06T00:28:04.819Z,1018.27
2023-02-06T00:29:04.788Z,1018.26
2023-02-06T00:30:04.793Z,1018.28
2023-02-06T00:31:04.844Z,1018.28
2023-02-06T00:32:04.833Z,1018.29
2023-02-06T00:33:04.776Z,1018.31
2023-02-06T00:34:04.781Z,1018.32
2023-02-06T00:35:04.778Z,1018.35
2023-02-06T00:36:04.720Z,1018.37
2023-02-06T00:37:04.743Z,1018.40
2023-02-06T00:38:04.780Z,1018.43
2023-02-06T00:39:04.717Z,1018.42
2023-02-06T00:40:04.720Z,1018.44
2023-02-06T00:41:04.716Z,1018.44
2023-02-06T00:42:04.712Z,1018.45
2023-02-06T00:43:04.695Z,1018.46
2023-02-06T00:44:04.745Z,1018.45
2023-02-06T00:45:04.675Z,1018.45
2023-02-06T00:46:04.751Z,1018.45
2023-02-06T00:47:04.723Z,1018.44
2023-02-06T00:48:04.662Z,1018.46
2023-02-06T00:49:04.664Z,1018.45
2023-02-06T00:50:04.696Z,1018.46
2023-02-06T00:51:04.640Z,1018.45
2023-02-06T00:52:04.631Z,1018.47
2023-02-06T00:53:04.649Z,1018.49
2023-02-06T00:54:04.617Z,1018.48
2023-02-06T00:55:04.620Z,1018.49
2023-02-06T00:56:04.663Z,1018.50
2023-02-06T00:57:04.589Z,1018.49
2023-02-06T00:58:04.606Z,1018.49
2023-02-06T00:59:04.583Z,1018.52
2023-02-06T01:00:04.562Z,1018.52
2023-02-06T01:01:04.579Z,1018.55
2023-02-06T01:02:04.600Z,1018.59
2023-02-06T01:03:04.629Z,1018.58
2023-02-06T01:04:04.558Z,1018.58
2023-02-06T01:05:04.526Z,1018.58
2023-02-06T01:06:04.528Z,1018.58
2023-02-06T01:07:04.539Z,1018.55
2023-02-06T01:08:04.921Z,1018.52
2023-02-06T01:09:04.495Z,1018.54
2023-02-06T01:10:04.498Z,1018.53
2023-02-06T01:11:04.515Z,1018.56
2023-02-06T01:12:04.506Z,1018.58
2023-02-06T01:13:04.494Z,1018.60
2023-02-06T01:14:04.528Z,1018.64
2023-02-06T01:15:04.471Z,1018.63
2023-02-06T01:16:04.472Z,1018.64
2023-02-06T01:17:04.446Z,1018.64
2023-02-06T01:18:04.444Z,1018.63
2023-02-06T01:19:04.456Z,1018.63
2023-02-06T01:20:04.507Z,1018.62
2023-02-06T01:21:04.432Z,1018.60
2023-02-06T01:22:04.416Z,1018.57
2023-02-06T01:23:04.411Z,1018.57
2023-02-06T01:24:04.398Z,1018.58
2023-02-06T01:25:04.404Z,1018.58
2023-02-06T01:26:04.455Z,1018.59
2023-02-06T01:27:04.370Z,1018.59
2023-02-06T01:28:04.409Z,1018.59
2023-02-06T01:29:04.366Z,1018.59
2023-02-06T01:30:04.372Z,1018.60
2023-02-06T01:31:04.486Z,1018.60
2023-02-06T01:32:04.411Z,1018.57
2023-02-06T01:33:04.335Z,1018.54
2023-02-06T01:34:04.331Z,1018.50
2023-02-06T01:35:04.338Z,1018.48
2023-02-06T01:36:04.292Z,1018.44
2023-02-06T01:37:04.303Z,1018.41
2023-02-06T01:38:04.403Z,1018.40
2023-02-06T01:39:04.319Z,1018.40
2023-02-06T01:40:04.299Z,1018.38
2023-02-06T01:41:04.292Z,1018.35
2023-02-06T01:42:04.275Z,1018.32
2023-02-06T01:43:04.286Z,1018.30
2023-02-06T01:44:04.283Z,1018.27
2023-02-06T01:45:04.230Z,1018.27
2023-02-06T01:46:04.266Z,1018.30
2023-02-06T01:47:04.249Z,1018.31
2023-02-06T01:48:04.232Z,1018.30
2023-02-06T01:49:06.927Z,1018.31
2023-02-06T01:50:04.289Z,1018.32
2023-02-06T01:51:04.193Z,1018.35
2023-02-06T01:52:04.201Z,1018.36
2023-02-06T01:53:04.198Z,1018.37
2023-02-06T01:54:04.218Z,1018.37
2023-02-06T01:55:04.186Z,1018.35
2023-02-06T01:56:04.219Z,1018.37
2023-02-06T01:57:04.148Z,1018.39
2023-02-06T01:58:04.139Z,1018.41
2023-02-06T01:59:04.142Z,1018.41
2023-02-06T02:00:04.160Z,1018.41
2023-02-06T02:01:04.196Z,1018.40
2023-02-06T02:02:04.231Z,1018.37
2023-02-06T02:03:04.141Z,1018.35
2023-02-06T02:04:04.100Z,1018.35
2023-02-06T02:05:04.103Z,1018.36
2023-02-06T02:06:04.084Z,1018.36
2023-02-06T02:07:04.083Z,1018.38
2023-02-06T02:08:04.163Z,1018.40
2023-02-06T02:09:04.103Z,1018.41
2023-02-06T02:10:04.104Z,1018.42
2023-02-06T02:11:04.067Z,1018.41
2023-02-06T02:12:04.066Z,1018.41
2023-02-06T02:13:04.068Z,1018.40
2023-02-06T02:14:04.467Z,1018.38
2023-02-06T02:15:04.027Z,1018.37
2023-02-06T02:16:04.067Z,1018.37
2023-02-06T02:17:04.025Z,1018.36
2023-02-06T02:18:04.017Z,1018.35
2023-02-06T02:19:04.016Z,1018.33
2023-02-06T02:20:04.079Z,1018.34
2023-02-06T02:21:04.008Z,1018.35
2023-02-06T02:22:03.976Z,1018.34
2023-02-06T02:23:03.985Z,1018.35
2023-02-06T02:24:04.099Z,1018.34
2023-02-06T02:25:03.976Z,1018.34
2023-02-06T02:26:04.013Z,1018.34
2023-02-06T02:27:03.973Z,1018.33
2023-02-06T02:28:04.007Z,1018.34
2023-02-06T02:29:03.934Z,1018.34
2023-02-06T02:30:03.937Z,1018.33
2023-02-06T02:31:03.943Z,1018.33
2023-02-06T02:32:03.956Z,1018.30
2023-02-06T02:33:03.938Z,1018.29
2023-02-06T02:34:03.908Z,1018.27
2023-02-06T02:35:03.895Z,1018.29
2023-02-06T02:36:03.890Z,1018.30
2023-02-06T02:37:03.887Z,1018.29
2023-02-06T02:38:03.956Z,1018.27
2023-02-06T02:39:03.861Z,1018.27
2023-02-06T02:40:03.866Z,1018.28
2023-02-06T02:41:03.878Z,1018.27
2023-02-06T02:42:03.865Z,1018.31
2023-02-06T02:43:03.832Z,1018.35
2023-02-06T02:44:03.902Z,1018.33
2023-02-06T02:45:03.843Z,1018.33
2023-02-06T02:46:03.885Z,1018.34
2023-02-06T02:47:03.814Z,1018.31
2023-02-06T02:48:03.791Z,1018.32
2023-02-06T02:49:03.817Z,1018.30
2023-02-06T02:50:03.817Z,1018.29
2023-02-06T02:51:03.782Z,1018.29
2023-02-06T02:52:03.786Z,1018.32
2023-02-06T02:53:03.823Z,1018.28
2023-02-06T02:54:03.750Z,1018.27
2023-02-06T02:55:03.766Z,1018.22
2023-02-06T02:56:03.794Z,1018.20
2023-02-06T02:57:03.735Z,1018.16
2023-02-06T02:58:03.723Z,1018.15
2023-02-06T02:59:03.726Z,1018.14
2023-02-06T03:00:03.708Z,1018.16
2023-02-06T03:01:03.766Z,1018.16
2023-02-06T03:02:03.793Z,1018.15
2023-02-06T03:03:03.714Z,1018.13
2023-02-06T03:04:03.674Z,1018.10
2023-02-06T03:05:03.716Z,1018.08
2023-02-06T03:06:03.687Z,1018.12
2023-02-06T03:07:03.651Z,1018.08
2023-02-06T03:08:03.711Z,1018.12
2023-02-06T03:09:03.664Z,1018.11
2023-02-06T03:10:03.661Z,1018.12
2023-02-06T03:11:03.655Z,1018.10
2023-02-06T03:12:03.640Z,1018.12
2023-02-06T03:13:03.672Z,1018.12
2023-02-06T03:14:03.657Z,1018.11
2023-02-06T03:15:03.627Z,1018.12
2023-02-06T03:16:03.596Z,1018.14
2023-02-06T03:17:03.586Z,1018.14
2023-02-06T03:18:03.595Z,1018.18
2023-02-06T03:19:03.615Z,1018.19
2023-02-06T03:20:04.033Z,1018.18
2023-02-06T03:21:03.553Z,1018.18
2023-02-06T03:22:03.569Z,1018.18
2023-02-06T03:23:03.579Z,1018.18
2023-02-06T03:24:03.561Z,1018.20
2023-02-06T03:25:03.604Z,1018.22
2023-02-06T03:26:03.598Z,1018.25
2023-02-06T03:27:03.529Z,1018.28
2023-02-06T03:28:03.600Z,1018.31
2023-02-06T03:29:03.503Z,1018.34
2023-02-06T03:30:03.489Z,1018.35
2023-02-06T03:31:03.489Z,1018.37
2023-02-06T03:32:03.553Z,1018.36
2023-02-06T03:33:03.503Z,1018.36
2023-02-06T03:34:03.489Z,1018.32
2023-02-06T03:35:03.478Z,1018.30
2023-02-06T03:36:03.491Z,1018.27
2023-02-06T03:37:03.450Z,1018.25
2023-02-06T03:38:03.505Z,1018.23
2023-02-06T03:39:03.451Z,1018.23
2023-02-06T03:40:03.504Z,1018.22
2023-02-06T03:41:03.431Z,1018.22
2023-02-06T03:42:03.419Z,1018.21
2023-02-06T03:43:03.409Z,1018.24
2023-02-06T03:44:03.456Z,1018.27
2023-02-06T03:45:03.404Z,1018.25
2023-02-06T03:46:03.433Z,1018.23
2023-02-06T03:47:03.410Z,1018.27
2023-02-06T03:48:03.409Z,1018.30
2023-02-06T03:49:03.380Z,1018.33
2023-02-06T03:50:03.403Z,1018.35
2023-02-06T03:51:03.353Z,1018.39
2023-02-06T03:52:03.363Z,1018.42
2023-02-06T03:53:03.344Z,1018.42
2023-02-06T03:54:03.350Z,1018.45
2023-02-06T03:55:03.341Z,1018.47
2023-02-06T03:56:03.370Z,1018.47
2023-02-06T03:57:03.330Z,1018.49
2023-02-06T03:58:03.315Z,1018.51
2023-02-06T03:59:03.337Z,1018.53
2023-02-06T04:00:03.308Z,1018.57
2023-02-06T04:01:03.386Z,1018.61
2023-02-06T04:02:03.369Z,1018.61
2023-02-06T04:03:03.275Z,1018.63
2023-02-06T04:04:03.274Z,1018.65
2023-02-06T04:05:03.279Z,1018.65
2023-02-06T04:06:03.256Z,1018.63
2023-02-06T04:07:03.260Z,1018.65
2023-02-06T04:08:03.309Z,1018.64
2023-02-06T04:09:03.231Z,1018.62
2023-02-06T04:10:03.224Z,1018.62
2023-02-06T04:11:03.239Z,1018.60
2023-02-06T04:12:03.235Z,1018.58
2023-02-06T04:13:03.204Z,1018.58
2023-02-06T04:14:03.257Z,1018.58
2023-02-06T04:15:03.185Z,1018.58
2023-02-06T04:16:03.230Z,1018.58
2023-02-06T04:17:03.178Z,1018.58
2023-02-06T04:18:03.945Z,1018.59
2023-02-06T04:19:03.166Z,1018.60
2023-02-06T04:20:03.397Z,1018.62
2023-02-06T04:21:03.182Z,1018.62
2023-02-06T04:22:03.144Z,1018.63
2023-02-06T04:23:03.138Z,1018.65
2023-02-06T04:24:03.177Z,1018.65
2023-02-06T04:25:03.148Z,1018.68
2023-02-06T04:26:03.465Z,1018.69
2023-02-06T04:27:03.130Z,1018.71
2023-02-06T04:28:03.149Z,1018.73
2023-02-06T04:29:03.144Z,1018.74
2023-02-06T04:30:03.094Z,1018.74
2023-02-06T04:31:03.203Z,1018.73
2023-02-06T04:32:03.135Z,1018.74
2023-02-06T04:33:03.104Z,1018.72
2023-02-06T04:34:03.088Z,1018.70
2023-02-06T04:35:03.062Z,1018.68
2023-02-06T04:36:03.053Z,1018.66
2023-02-06T04:37:03.073Z,1018.65
2023-02-06T04:38:03.079Z,1018.63
2023-02-06T04:39:03.025Z,1018.61
2023-02-06T04:40:03.009Z,1018.61
2023-02-06T04:41:03.039Z,1018.61
2023-02-06T04:42:03.023Z,1018.62
2023-02-06T04:43:02.994Z,1018.62
2023-02-06T04:44:03.046Z,1018.62
2023-02-06T04:45:02.989Z,1018.61
2023-02-06T04:46:03.031Z,1018.62
2023-02-06T04:47:02.994Z,1018.62
2023-02-06T04:48:02.970Z,1018.62
2023-02-06T04:49:02.969Z,1018.61
2023-02-06T04:50:03.022Z,1018.59
2023-02-06T04:51:02.961Z,1018.57
2023-02-06T04:52:02.936Z,1018.54
2023-02-06T04:53:02.942Z,1018.52
2023-02-06T04:54:02.940Z,1018.53
2023-02-06T04:55:02.908Z,1018.54
2023-02-06T04:56:02.975Z,1018.55
2023-02-06T04:57:02.929Z,1018.53
2023-02-06T04:58:02.910Z,1018.54
2023-02-06T04:59:02.908Z,1018.56
2023-02-06T05:00:02.862Z,1018.58
2023-02-06T05:01:02.882Z,1018.59
2023-02-06T05:02:02.981Z,1018.60
2023-02-06T05:03:02.863Z,1018.60
2023-02-06T05:04:02.890Z,1018.60
2023-02-06T05:05:02.852Z,1018.60
2023-02-06T05:06:02.833Z,1018.61
2023-02-06T05:07:05.366Z,1018.61
2023-02-06T05:08:02.892Z,1018.62
2023-02-06T05:09:02.807Z,1018.62
2023-02-06T05:10:02.818Z,1018.63
2023-02-06T05:11:02.824Z,1018.64
2023-02-06T05:12:02.805Z,1018.65
2023-02-06T05:13:02.779Z,1018.65
2023-02-06T05:14:02.812Z,1018.65
2023-02-06T05:15:02.777Z,1018.66
2023-02-06T05:16:02.802Z,1018.68
2023-02-06T05:17:02.762Z,1018.70
2023-02-06T05:18:02.787Z,1018.73
2023-02-06T05:19:02.773Z,1018.74
2023-02-06T05:20:02.818Z,1018.74
2023-02-06T05:21:02.734Z,1018.72
2023-02-06T05:22:02.724Z,1018.68
2023-02-06T05:23:02.718Z,1018.64
2023-02-06T05:24:02.713Z,1018.62
2023-02-06T05:25:02.714Z,1018.61
2023-02-06T05:26:02.737Z,1018.61
2023-02-06T05:27:02.720Z,1018.59
2023-02-06T05:28:02.705Z,1018.58
2023-02-06T05:29:02.709Z,1018.57
2023-02-06T05:30:02.657Z,1018.55
2023-02-06T05:31:02.783Z,1018.55
2023-02-06T05:32:03.265Z,1018.56
2023-02-06T05:33:02.667Z,1018.58
2023-02-06T05:34:02.638Z,1018.60
2023-02-06T05:35:02.642Z,1018.60
2023-02-06T05:36:02.628Z,1018.61
2023-02-06T05:37:02.625Z,1018.60
2023-02-06T05:38:02.678Z,1018.60
2023-02-06T05:39:02.612Z,1018.61
2023-02-06T05:40:02.600Z,1018.60
2023-02-06T05:41:02.593Z,1018.58
2023-02-06T05:42:02.601Z,1018.56
2023-02-06T05:43:02.580Z,1018.53
2023-02-06T05:44:02.626Z,1018.51
2023-02-06T05:45:02.570Z,1018.50
2023-02-06T05:46:02.607Z,1018.49
2023-02-06T05:47:02.536Z,1018.47
2023-02-06T05:48:02.538Z,1018.48
2023-02-06T05:49:02.549Z,1018.48
2023-02-06T05:50:02.587Z,1018.50
2023-02-06T05:51:02.540Z,1018.52
2023-02-06T05:52:02.509Z,1018.53
2023-02-06T05:53:02.520Z,1018.53
2023-02-06T05:54:02.535Z,1018.56
2023-02-06T05:55:02.508Z,1018.59
2023-02-06T05:56:02.538Z,1018.62
2023-02-06T05:57:02.506Z,1018.64
2023-02-06T05:58:02.487Z,1018.63
2023-02-06T05:59:02.499Z,1018.59
2023-02-06T06:00:02.476Z,1018.57
2023-02-06T06:01:02.494Z,1018.54
2023-02-06T06:02:02.530Z,1018.53
2023-02-06T06:03:02.435Z,1018.53
2023-02-06T06:04:02.469Z,1018.52
2023-02-06T06:05:02.520Z,1018.51
2023-02-06T06:06:02.439Z,1018.52
2023-02-06T06:07:02.428Z,1018.53
2023-02-06T06:08:02.456Z,1018.54
2023-02-06T06:09:02.411Z,1018.57
2023-02-06T06:10:02.409Z,1018.60
2023-02-06T06:11:02.430Z,1018.60
2023-02-06T06:12:02.365Z,1018.58
2023-02-06T06:13:02.428Z,1018.56
2023-02-06T06:14:02.433Z,1018.58
2023-02-06T06:15:02.354Z,1018.62
2023-02-06T06:16:02.495Z,1018.70
2023-02-06T06:17:02.341Z,1018.76
2023-02-06T06:18:02.349Z,1018.78
2023-02-06T06:19:02.317Z,1018.76
2023-02-06T06:20:02.375Z,1018.73
2023-02-06T06:21:02.337Z,1018.70
2023-02-06T06:22:02.313Z,1018.68
2023-02-06T06:23:02.324Z,1018.67
2023-02-06T06:24:02.311Z,1018.68
2023-02-06T06:25:02.352Z,1018.69
2023-02-06T06:26:02.352Z,1018.71
2023-02-06T06:27:02.265Z,1018.74
2023-02-06T06:28:02.311Z,1018.77
2023-02-06T06:29:02.270Z,1018.80
2023-02-06T06:30:02.277Z,1018.83
2023-02-06T06:31:02.310Z,1018.82
2023-02-06T06:32:02.308Z,1018.82
2023-02-06T06:33:02.216Z,1018.82
2023-02-06T06:34:02.210Z,1018.85
2023-02-06T06:35:02.239Z,1018.86
2023-02-06T06:36:02.214Z,1018.87
2023-02-06T06:37:02.226Z,1018.88
2023-02-06T06:38:02.453Z,1018.89
2023-02-06T06:39:02.218Z,1018.89
2023-02-06T06:40:02.184Z,1018.92
2023-02-06T06:41:02.200Z,1018.94
2023-02-06T06:42:02.172Z,1018.95
2023-02-06T06:43:02.164Z,1018.98
2023-02-06T06:44:02.196Z,1019.00
2023-02-06T06:45:02.174Z,1019.03
2023-02-06T06:46:02.194Z,1019.02
2023-02-06T06:47:02.135Z,1018.99
2023-02-06T06:48:02.146Z,1018.98
2023-02-06T06:49:02.120Z,1018.97
2023-02-06T06:50:02.195Z,1018.97
2023-02-06T06:51:02.171Z,1018.97
2023-02-06T06:52:02.146Z,1018.97
2023-02-06T06:53:02.124Z,1018.97
2023-02-06T06:54:02.087Z,1018.97
2023-02-06T06:55:02.075Z,1018.96
2023-02-06T06:56:02.112Z,1018.93
2023-02-06T06:57:02.058Z,1018.92
2023-02-06T06:58:02.082Z,1018.91
2023-02-06T06:59:02.058Z,1018.89
2023-02-06T07:00:02.074Z,1018.89
2023-02-06T07:01:02.075Z,1018.89
2023-02-06T07:02:02.082Z,1018.89
2023-02-06T07:03:02.108Z,1018.88
2023-02-06T07:04:02.023Z,1018.88
2023-02-06T07:05:02.042Z,1018.86
2023-02-06T07:06:01.993Z,1018.86
2023-02-06T07:07:02.051Z,1018.85
2023-02-06T07:08:02.038Z,1018.84
2023-02-06T07:09:02.005Z,1018.80
2023-02-06T07:10:01.985Z,1018.79
2023-02-06T07:11:01.991Z,1018.79
2023-02-06T07:12:01.974Z,1018.79
2023-02-06T07:13:01.962Z,1018.78
2023-02-06T07:14:01.997Z,1018.79
2023-02-06T07:15:01.949Z,1018.77
2023-02-06T07:16:02.041Z,1018.76
2023-02-06T07:17:01.957Z,1018.74
2023-02-06T07:18:01.951Z,1018.75
2023-02-06T07:19:01.922Z,1018.75
2023-02-06T07:20:02.006Z,1018.76
2023-02-06T07:21:01.905Z,1018.78
2023-02-06T07:22:01.917Z,1018.76
2023-02-06T07:23:01.910Z,1018.79
2023-02-06T07:24:01.905Z,1018.79
2023-02-06T07:25:01.910Z,1018.80
2023-02-06T07:26:01.937Z,1018.81
2023-02-06T07:27:01.865Z,1018.82
2023-02-06T07:28:01.954Z,1018.82
2023-02-06T07:29:01.868Z,1018.81
2023-02-06T07:30:01.862Z,1018.81
2023-02-06T07:31:01.867Z,1018.81
2023-02-06T07:32:01.910Z,1018.79
2023-02-06T07:33:01.850Z,1018.79
2023-02-06T07:34:01.833Z,1018.82
2023-02-06T07:35:01.831Z,1018.84
2023-02-06T07:36:03.859Z,1018.86
2023-02-06T07:37:01.807Z,1018.88
2023-02-06T07:38:01.858Z,1018.85
2023-02-06T07:39:01.773Z,1018.85
2023-02-06T07:40:01.769Z,1018.86
2023-02-06T07:41:01.785Z,1018.89
2023-02-06T07:42:01.776Z,1018.91
2023-02-06T07:43:01.762Z,1018.93
2023-02-06T07:44:02.026Z,1018.93
2023-02-06T07:45:01.746Z,1018.92
2023-02-06T07:46:01.821Z,1018.91
2023-02-06T07:47:01.740Z,1018.88
2023-02-06T07:48:01.710Z,1018.85
2023-02-06T07:49:01.705Z,1018.82
2023-02-06T07:50:01.728Z,1018.81
2023-02-06T07:51:01.692Z,1018.79
2023-02-06T07:52:01.711Z,1018.78
2023-02-06T07:53:01.674Z,1018.78
2023-02-06T07:54:01.719Z,1018.78
2023-02-06T07:55:01.678Z,1018.78
2023-02-06T07:56:01.756Z,1018.77
2023-02-06T07:57:01.662Z,1018.78
2023-02-06T07:58:01.660Z,1018.79
2023-02-06T07:59:01.648Z,1018.77
2023-02-06T08:00:01.655Z,1018.77
2023-02-06T08:01:01.661Z,1018.78
2023-02-06T08:02:01.656Z,1018.79
2023-02-06T08:03:01.610Z,1018.83
2023-02-06T08:04:01.615Z,1018.84
2023-02-06T08:05:01.604Z,1018.83
2023-02-06T08:06:01.599Z,1018.82
2023-02-06T08:07:01.571Z,1018.82
2023-02-06T08:08:01.624Z,1018.81
2023-02-06T08:09:01.579Z,1018.80
2023-02-06T08:10:01.590Z,1018.78
2023-02-06T08:11:01.548Z,1018.78
2023-02-06T08:12:01.559Z,1018.75
2023-02-06T08:13:01.586Z,1018.76
2023-02-06T08:14:01.585Z,1018.78
2023-02-06T08:15:01.562Z,1018.81
2023-02-06T08:16:01.565Z,1018.79
2023-02-06T08:17:01.548Z,1018.82
2023-02-06T08:18:01.497Z,1018.81
2023-02-06T08:19:01.510Z,1018.82
2023-02-06T08:20:01.563Z,1018.83
2023-02-06T08:21:01.526Z,1018.82
2023-02-06T08:22:01.468Z,1018.82
2023-02-06T08:23:01.479Z,1018.82
2023-02-06T08:24:01.482Z,1018.83
2023-02-06T08:25:01.474Z,1018.84
2023-02-06T08:26:01.508Z,1018.85
2023-02-06T08:27:01.453Z,1018.86
2023-02-06T08:28:01.471Z,1018.87
2023-02-06T08:29:01.482Z,1018.88
2023-02-06T08:30:01.442Z,1018.86
2023-02-06T08:31:01.505Z,1018.86
2023-02-06T08:32:01.478Z,1018.85
2023-02-06T08:33:01.392Z,1018.84
2023-02-06T08:34:01.390Z,1018.84
2023-02-06T08:35:01.397Z,1018.84
2023-02-06T08:36:01.377Z,1018.83
2023-02-06T08:37:01.420Z,1018.81
2023-02-06T08:38:01.397Z,1018.77
2023-02-06T08:39:01.395Z,1018.73
2023-02-06T08:40:01.354Z,1018.71
2023-02-06T08:41:01.344Z,1018.67
2023-02-06T08:42:01.373Z,1018.65
2023-02-06T08:43:01.337Z,1018.64
2023-02-06T08:44:01.650Z,1018.63
2023-02-06T08:45:01.314Z,1018.62
2023-02-06T08:46:01.481Z,1018.62
2023-02-06T08:47:09.682Z,1018.63
2023-02-06T08:48:02.289Z,1018.63
2023-02-06T08:49:01.332Z,1018.63
2023-02-06T08:50:03.389Z,1018.66
2023-02-06T08:51:01.283Z,1018.66
2023-02-06T08:52:01.276Z,1018.66
2023-02-06T08:53:01.281Z,1018.63
2023-02-06T08:54:01.250Z,1018.61
2023-02-06T08:55:01.298Z,1018.59
2023-02-06T08:56:01.291Z,1018.58
2023-02-06T08:57:01.216Z,1018.59
2023-02-06T08:58:01.229Z,1018.62
2023-02-06T08:59:01.266Z,1018.64
2023-02-06T09:00:01.248Z,1018.67
2023-02-06T09:01:01.222Z,1018.68
2023-02-06T09:02:01.260Z,1018.68
2023-02-06T09:03:01.166Z,1018.67
2023-02-06T09:04:01.191Z,1018.69
2023-02-06T09:05:01.167Z,1018.71
2023-02-06T09:06:09.416Z,1018.75
2023-02-06T09:07:02.232Z,1018.74
2023-02-06T09:08:01.148Z,1018.74
2023-02-06T09:09:01.158Z,1018.73
2023-02-06T09:10:01.152Z,1018.71
2023-02-06T09:11:01.155Z,1018.72
2023-02-06T09:12:01.168Z,1018.72
2023-02-06T09:13:01.195Z,1018.72
2023-02-06T09:14:01.111Z,1018.75
2023-02-06T09:15:01.141Z,1018.79
2023-02-06T09:16:01.157Z,1018.79
2023-02-06T09:17:01.097Z,1018.79
2023-02-06T09:18:01.132Z,1018.80
2023-02-06T09:19:01.160Z,1018.81
2023-02-06T09:20:01.081Z,1018.81
2023-02-06T09:21:01.093Z,1018.81
2023-02-06T09:22:01.078Z,1018.78
2023-02-06T09:23:01.097Z,1018.77
2023-02-06T09:24:01.077Z,1018.75
2023-02-06T09:25:01.118Z,1018.72
2023-02-06T09:26:01.029Z,1018.71
2023-02-06T09:27:01.235Z,1018.72
2023-02-06T09:28:01.051Z,1018.73
2023-02-06T09:29:12.320Z,1018.75
2023-02-06T09:30:01.054Z,1018.73
2023-02-06T09:31:01.178Z,1018.72
2023-02-06T09:32:01.001Z,1018.70
2023-02-06T09:33:00.980Z,1018.71
2023-02-06T09:34:00.963Z,1018.70
2023-02-06T09:35:00.967Z,1018.70
2023-02-06T09:36:00.953Z,1018.69
2023-02-06T09:37:01.019Z,1018.68
2023-02-06T09:38:00.948Z,1018.67
2023-02-06T09:39:00.938Z,1018.63
2023-02-06T09:40:00.947Z,1018.61
2023-02-06T09:41:00.926Z,1018.63
2023-02-06T09:42:00.930Z,1018.64
2023-02-06T09:43:00.979Z,1018.63
2023-02-06T09:44:00.885Z,1018.61
2023-02-06T09:45:00.895Z,1018.59
2023-02-06T09:46:00.929Z,1018.55
2023-02-06T09:47:00.871Z,1018.52
2023-02-06T09:48:00.873Z,1018.50
2023-02-06T09:49:01.362Z,1018.50
2023-02-06T09:50:00.848Z,1018.50
2023-02-06T09:51:00.867Z,1018.51
2023-02-06T09:52:00.822Z,1018.47
2023-02-06T09:53:00.834Z,1018.40
2023-02-06T09:54:00.847Z,1018.36
2023-02-06T09:55:00.892Z,1018.36
2023-02-06T09:56:00.793Z,1018.37
2023-02-06T09:57:00.835Z,1018.36
2023-02-06T09:58:00.845Z,1018.34
2023-02-06T09:59:00.802Z,1018.30
2023-02-06T10:00:00.848Z,1018.27
2023-02-06T10:01:00.849Z,1018.28
2023-02-06T10:02:00.810Z,1018.28
2023-02-06T10:03:00.780Z,1018.29
2023-02-06T10:04:00.847Z,1018.29
2023-02-06T10:05:00.755Z,1018.33
2023-02-06T10:06:00.772Z,1018.33
2023-02-06T10:07:00.798Z,1018.35
2023-02-06T10:08:00.746Z,1018.33
2023-02-06T10:09:00.745Z,1018.29
2023-02-06T10:10:00.718Z,1018.26
2023-02-06T10:11:00.755Z,1018.24
2023-02-06T10:12:00.749Z,1018.22
2023-02-06T10:13:00.761Z,1018.20
2023-02-06T10:14:00.687Z,1018.23
2023-02-06T10:15:00.660Z,1018.25
2023-02-06T10:16:00.761Z,1018.24
2023-02-06T10:17:00.652Z,1018.21
2023-02-06T10:18:00.666Z,1018.14
2023-02-06T10:19:00.724Z,1018.10
2023-02-06T10:20:00.647Z,1018.07
2023-02-06T10:21:00.636Z,1018.04
2023-02-06T10:22:00.644Z,1018.04
2023-02-06T10:23:00.625Z,1018.01
2023-02-06T10:24:00.609Z,1018.00
2023-02-06T10:25:00.660Z,1017.98
2023-02-06T10:26:00.597Z,1017.94
2023-02-06T10:27:00.613Z,1017.92
2023-02-06T10:28:00.626Z,1017.92
2023-02-06T10:29:00.609Z,1017.90
2023-02-06T10:30:00.567Z,1017.88
2023-02-06T10:31:00.771Z,1017.85
2023-02-06T10:32:00.604Z,1017.83
2023-02-06T10:33:00.543Z,1017.82
2023-02-06T10:34:00.540Z,1017.83
2023-02-06T10:35:00.563Z,1017.83
2023-02-06T10:36:00.536Z,1017.84
2023-02-06T10:37:00.585Z,1017.84
2023-02-06T10:38:00.506Z,1017.86
2023-02-06T10:39:00.536Z,1017.87
2023-02-06T10:40:00.529Z,1017.88
2023-02-06T10:41:00.493Z,1017.84
2023-02-06T10:42:00.490Z,1017.83
2023-02-06T10:43:00.572Z,1017.82
2023-02-06T10:44:00.517Z,1017.84
2023-02-06T10:45:13.572Z,1017.81
2023-02-06T10:46:01.467Z,1017.80
2023-02-06T10:47:00.545Z,1017.77
2023-02-06T10:48:00.437Z,1017.75
2023-02-06T10:49:00.497Z,1017.70
2023-02-06T10:50:00.542Z,1017.70
2023-02-06T10:51:00.432Z,1017.71
2023-02-06T10:52:00.417Z,1017.70
2023-02-06T10:53:00.410Z,1017.71
2023-02-06T10:54:00.430Z,1017.72
2023-02-06T10:55:00.934Z,1017.70
2023-02-06T10:56:00.396Z,1017.68
2023-02-06T10:57:00.388Z,1017.65
2023-02-06T10:58:00.394Z,1017.63
2023-02-06T10:59:00.367Z,1017.62
2023-02-06T11:00:00.379Z,1017.57
2023-02-06T11:01:00.591Z,1017.55
2023-02-06T11:02:00.686Z,1017.56
2023-02-06T11:03:07.437Z,1017.55
2023-02-06T11:04:01.368Z,1017.54
2023-02-06T11:05:00.354Z,1017.53
2023-02-06T11:06:00.352Z,1017.52
2023-02-06T11:07:00.359Z,1017.51
2023-02-06T11:08:00.288Z,1017.51
2023-02-06T11:09:00.314Z,1017.50
2023-02-06T11:10:00.268Z,1017.50
2023-02-06T11:11:00.299Z,1017.51
2023-02-06T11:12:00.273Z,1017.46
2023-02-06T11:13:00.336Z,1017.45
2023-02-06T11:14:00.269Z,1017.45
2023-02-06T11:15:00.285Z,1017.44
2023-02-06T11:16:00.280Z,1017.43
2023-02-06T11:17:00.338Z,1017.39
2023-02-06T11:18:00.233Z,1017.39
2023-02-06T11:19:00.271Z,1017.42
2023-02-06T11:20:00.211Z,1017.33
2023-02-06T11:21:00.235Z,1017.31
2023-02-06T11:22:00.211Z,1017.32
2023-02-06T11:23:00.213Z,1017.35
2023-02-06T11:24:00.215Z,1017.29
2023-02-06T11:25:00.258Z,1017.29
2023-02-06T11:26:00.192Z,1017.26
2023-02-06T11:27:00.182Z,1017.25
2023-02-06T11:28:00.233Z,1017.25
2023-02-06T11:29:00.172Z,1017.24
2023-02-06T11:30:00.208Z,1017.24
2023-02-06T11:31:00.333Z,1017.23
2023-02-06T11:32:00.174Z,1017.19
2023-02-06T11:33:04.617Z,1017.18
2023-02-06T11:34:01.170Z,1017.11
2023-02-06T11:35:00.113Z,1017.06
2023-02-06T11:36:00.136Z,1017.04
2023-02-06T11:37:00.155Z,1017.01
2023-02-06T11:38:00.127Z,1017.01
2023-02-06T11:39:00.115Z,1017.02
2023-02-06T11:40:00.045Z,1017.03
2023-02-06T11:41:00.138Z,1017.02
2023-02-06T11:42:00.142Z,1017.03
2023-02-06T11:43:00.132Z,1016.99
2023-02-06T11:44:00.031Z,1016.97
2023-02-06T11:45:00.068Z,1016.98
2023-02-06T11:46:00.094Z,1017.00
2023-02-06T11:47:00.041Z,1017.02
2023-02-06T11:48:00.028Z,1017.05
2023-02-06T11:49:00.052Z,1017.06
2023-02-06T11:50:00.015Z,1017.04
2023-02-06T11:51:00.011Z,1017.05
2023-02-06T11:51:59.981Z,1017.06
2023-02-06T11:52:59.994Z,1017.08
2023-02-06T11:53:59.983Z,1017.11
2023-02-06T11:55:00.012Z,1017.11
2023-02-06T11:55:59.952Z,1017.11
2023-02-06T11:56:59.963Z,1017.07
2023-02-06T11:57:59.957Z,1017.11
2023-02-06T11:58:59.889Z,1017.09
2023-02-06T11:59:59.938Z,1017.08
2023-02-06T12:01:00.208Z,1017.09
2023-02-06T12:01:59.954Z,1017.06
2023-02-06T12:02:59.911Z,1017.03
2023-02-06T12:03:59.909Z,1016.98
2023-02-06T12:04:59.870Z,1016.96